createdAt,value
2018-09-10T00:02:07.761Z,7.92
2018-09-10T00:04:35.575Z,7.72
2018-09-10T00:07:03.424Z,7.58
2018-09-10T00:09:31.262Z,7.20
2018-09-10T00:12:00.099Z,8.23
2018-09-10T00:14:27.911Z,7.80
2018-09-10T00:16:55.720Z,9.03
2018-09-10T00:19:23.476Z,9.60
2018-09-10T00:22:09.690Z,9.55
2018-09-10T00:25:25.348Z,9.43
2018-09-10T00:27:53.417Z,9.38
2018-09-10T00:30:21.536Z,10.03
2018-09-10T00:32:49.525Z,9.58
2018-09-10T00:35:17.608Z,10.70
2018-09-10T00:37:45.565Z,9.68
2018-09-10T00:40:13.645Z,10.48
2018-09-10T00:42:41.659Z,10.48
2018-09-10T00:45:09.744Z,10.48
2018-09-10T00:47:37.715Z,10.53
2018-09-10T00:50:05.865Z,11.05
2018-09-10T00:52:33.721Z,11.73
2018-09-10T00:55:01.646Z,11.00
2018-09-10T00:57:29.564Z,12.10
2018-09-10T00:59:57.566Z,11.68
2018-09-10T01:02:25.444Z,11.78
2018-09-10T01:04:53.408Z,11.68
2018-09-10T01:07:21.302Z,12.47
2018-09-10T01:09:49.226Z,12.28
2018-09-10T01:12:17.080Z,12.15
2018-09-10T01:14:45.075Z,12.63
2018-09-10T01:17:13.014Z,11.90
2018-09-10T01:19:40.952Z,11.68
2018-09-10T01:22:08.840Z,12.33
2018-09-10T01:24:36.755Z,12.47
2018-09-10T01:27:04.711Z,12.20
2018-09-10T01:29:32.510Z,12.63
2018-09-10T01:32:00.379Z,13.18
2018-09-10T01:34:33.704Z,13.43
2018-09-10T01:37:01.511Z,13.05
2018-09-10T01:39:29.365Z,12.80
2018-09-10T01:41:57.190Z,13.62
2018-09-10T01:44:32.698Z,13.75
2018-09-10T01:47:01.098Z,17.00
2018-09-10T01:49:29.828Z,14.98
2018-09-10T01:51:58.568Z,14.07
2018-09-10T01:54:27.252Z,14.40
2018-09-10T01:56:55.662Z,14.03
2018-09-10T01:59:24.296Z,14.93
2018-09-10T02:01:52.979Z,15.10
2018-09-10T02:04:21.644Z,14.28
2018-09-10T02:06:50.198Z,14.55
2018-09-10T02:09:18.642Z,15.80
2018-09-10T02:11:47.347Z,15.35
2018-09-10T02:14:16.965Z,15.72
2018-09-10T02:16:45.548Z,15.25
2018-09-10T02:19:14.120Z,15.13
2018-09-10T02:21:42.600Z,17.35
2018-09-10T02:24:11.051Z,17.27
2018-09-10T02:26:39.758Z,16.30
2018-09-10T02:29:08.289Z,16.52
2018-09-10T02:31:36.886Z,17.55
2018-09-10T02:34:05.383Z,18.45
2018-09-10T02:36:34.983Z,17.30
2018-09-10T02:39:04.512Z,17.25
2018-09-10T02:41:37.354Z,16.52
2018-09-10T02:44:06.089Z,17.17
2018-09-10T02:46:34.612Z,18.02
2018-09-10T02:49:03.200Z,19.15
2018-09-10T02:51:31.828Z,17.40
2018-09-10T02:54:00.622Z,19.17
2018-09-10T02:56:29.136Z,19.52
2018-09-10T02:58:57.689Z,18.37
2018-09-10T03:01:26.319Z,19.97
2018-09-10T03:03:54.887Z,20.00
2018-09-10T03:06:23.336Z,21.75
2018-09-10T03:08:51.798Z,22.48
2018-09-10T03:11:20.331Z,21.10
2018-09-10T03:13:48.978Z,22.87
2018-09-10T03:16:17.517Z,21.10
2018-09-10T03:18:46.002Z,21.60
2018-09-10T03:21:14.493Z,22.52
2018-09-10T03:23:43.091Z,19.77
2018-09-10T03:26:11.423Z,21.68
2018-09-10T03:28:39.817Z,20.73
2018-09-10T03:31:08.448Z,20.10
2018-09-10T03:33:36.940Z,20.45
2018-09-10T03:36:05.261Z,21.63
2018-09-10T03:38:33.529Z,24.15
2018-09-10T03:41:01.948Z,24.02
2018-09-10T03:43:30.332Z,24.37
2018-09-10T03:45:58.756Z,27.30
2018-09-10T03:48:27.057Z,35.10
2018-09-10T03:50:55.407Z,28.83
2018-09-10T03:53:23.791Z,31.67
2018-09-10T03:55:52.146Z,30.77
2018-09-10T03:58:20.597Z,33.13
2018-09-10T04:00:49.075Z,32.20
2018-09-10T04:03:17.637Z,29.70
2018-09-10T04:05:46.122Z,33.20
2018-09-10T04:08:14.620Z,35.20
2018-09-10T04:10:42.917Z,32.90
2018-09-10T04:13:11.543Z,33.90
2018-09-10T04:15:39.998Z,37.37
2018-09-10T04:18:08.557Z,36.05
2018-09-10T04:20:37.162Z,38.50
2018-09-10T04:23:05.954Z,37.10
2018-09-10T04:25:34.495Z,37.13
2018-09-10T04:28:02.868Z,36.05
2018-09-10T04:30:31.329Z,36.33
2018-09-10T04:32:59.818Z,35.20
2018-09-10T04:35:28.279Z,35.30
2018-09-10T04:37:56.620Z,37.28
2018-09-10T04:40:24.970Z,40.60
2018-09-10T04:42:53.502Z,36.77
2018-09-10T04:45:23.178Z,44.57
2018-09-10T04:47:51.574Z,38.23
2018-09-10T04:50:20.015Z,35.73
2018-09-10T04:52:48.309Z,33.83
2018-09-10T04:55:17.070Z,33.73
2018-09-10T04:57:45.751Z,39.53
2018-09-10T05:00:14.251Z,35.93
2018-09-10T05:02:43.622Z,36.30
2018-09-10T05:05:12.045Z,38.00
2018-09-10T05:07:40.563Z,37.20
2018-09-10T05:10:09.115Z,40.87
2018-09-10T05:12:37.630Z,41.77
2018-09-10T05:15:06.431Z,42.23
2018-09-10T05:17:34.896Z,39.50
2018-09-10T05:20:03.396Z,40.92
2018-09-10T05:22:31.966Z,39.13
2018-09-10T05:25:00.332Z,42.57
2018-09-10T05:27:28.789Z,42.43
2018-09-10T05:29:57.265Z,43.37
2018-09-10T05:32:25.810Z,44.40
2018-09-10T05:34:54.310Z,43.67
2018-09-10T05:37:22.769Z,43.00
2018-09-10T05:39:51.181Z,46.27
2018-09-10T05:42:19.815Z,48.73
2018-09-10T05:44:48.545Z,47.07
2018-09-10T05:47:17.107Z,45.97
2018-09-10T05:49:45.631Z,50.07
2018-09-10T05:52:14.169Z,46.33
2018-09-10T05:54:42.836Z,45.33
2018-09-10T05:57:11.369Z,46.80
2018-09-10T05:59:40.130Z,41.53
2018-09-10T06:02:08.921Z,41.87
2018-09-10T06:04:37.564Z,46.83
2018-09-10T06:07:06.214Z,44.80
2018-09-10T06:09:34.753Z,44.57
2018-09-10T06:12:03.469Z,46.77
2018-09-10T06:14:32.030Z,46.13
2018-09-10T06:17:00.634Z,45.77
2018-09-10T06:19:29.319Z,47.57
2018-09-10T06:21:57.912Z,50.13
2018-09-10T06:24:26.400Z,49.50
2018-09-10T06:26:54.981Z,51.53
2018-09-10T06:29:23.712Z,50.17
2018-09-10T06:31:52.164Z,46.67
2018-09-10T06:34:20.813Z,46.23
2018-09-10T06:36:49.539Z,40.30
2018-09-10T06:39:18.315Z,37.83
2018-09-10T06:41:47.021Z,32.77
2018-09-10T06:44:15.726Z,31.47
2018-09-10T06:46:44.479Z,32.17
2018-09-10T06:49:13.133Z,29.85
2018-09-10T06:51:41.733Z,25.67
2018-09-10T06:54:10.280Z,25.30
2018-09-10T06:56:39.058Z,22.67
2018-09-10T06:59:07.842Z,22.53
2018-09-10T07:01:36.519Z,24.40
2018-09-10T07:04:05.315Z,21.62
2018-09-10T07:06:34.089Z,20.68
2018-09-10T07:09:03.060Z,18.70
2018-09-10T07:11:31.743Z,17.62
2018-09-10T07:14:00.575Z,16.95
2018-09-10T07:16:29.131Z,18.93
2018-09-10T07:18:57.921Z,19.45
2018-09-10T07:21:26.630Z,17.95
2018-09-10T07:23:55.335Z,15.72
2018-09-10T07:26:24.205Z,14.43
2018-09-10T07:28:52.915Z,14.05
2018-09-10T07:31:21.564Z,12.93
2018-09-10T07:33:50.236Z,14.23
2018-09-10T07:36:18.967Z,14.43
2018-09-10T07:38:47.538Z,14.23
2018-09-10T07:41:17.102Z,14.85
2018-09-10T07:43:45.706Z,14.75
2018-09-10T07:46:14.114Z,14.15
2018-09-10T07:48:42.643Z,13.60
2018-09-10T07:51:11.308Z,13.85
2018-09-10T07:53:39.752Z,13.93
2018-09-10T07:56:08.066Z,12.63
2018-09-10T07:58:36.568Z,13.80
2018-09-10T08:01:05.197Z,11.95
2018-09-10T08:03:33.705Z,11.68
2018-09-10T08:06:02.227Z,10.88
2018-09-10T08:08:30.769Z,9.63
2018-09-10T08:10:59.180Z,12.28
2018-09-10T08:13:27.565Z,12.40
2018-09-10T08:15:56.077Z,10.45
2018-09-10T08:18:24.533Z,9.55
2018-09-10T08:20:52.997Z,9.70
2018-09-10T08:23:21.440Z,10.53
2018-09-10T08:25:49.998Z,9.63
2018-09-10T08:28:18.593Z,8.83
2018-09-10T08:30:47.240Z,9.95
2018-09-10T08:33:15.806Z,10.93
2018-09-10T08:35:44.203Z,9.58
2018-09-10T08:38:12.668Z,11.75
2018-09-10T08:40:41.314Z,10.93
2018-09-10T08:43:09.760Z,9.13
2018-09-10T08:45:38.151Z,10.32
2018-09-10T08:48:06.637Z,7.47
2018-09-10T08:50:35.037Z,10.85
2018-09-10T08:53:04.541Z,11.00
2018-09-10T08:55:33.101Z,9.30
2018-09-10T08:58:01.788Z,7.20
2018-09-10T09:00:30.331Z,8.53
2018-09-10T09:02:58.719Z,6.42
2018-09-10T09:05:27.143Z,6.62
2018-09-10T09:07:55.528Z,6.17
2018-09-10T09:10:23.969Z,6.20
2018-09-10T09:12:52.388Z,6.30
2018-09-10T09:15:20.927Z,5.70
2018-09-10T09:17:49.337Z,4.95
2018-09-10T09:20:17.853Z,4.62
2018-09-10T09:22:46.298Z,4.80
2018-09-10T09:25:14.802Z,4.12
2018-09-10T09:27:43.523Z,4.20
2018-09-10T09:30:12.045Z,3.45
2018-09-10T09:32:40.758Z,6.25
2018-09-10T09:35:09.584Z,3.67
2018-09-10T09:37:44.590Z,6.25
2018-09-10T09:40:18.863Z,2.30
2018-09-10T09:42:52.771Z,2.65
2018-09-10T09:45:26.945Z,2.72
2018-09-10T09:47:55.490Z,3.65
2018-09-10T09:50:23.836Z,2.17
2018-09-10T09:52:52.247Z,1.82
2018-09-10T09:55:21.225Z,1.10
2018-09-10T09:57:49.533Z,0.90
2018-09-10T10:00:23.914Z,0.70
2018-09-10T10:02:56.146Z,0.80
2018-09-10T10:05:24.614Z,0.60
2018-09-10T10:07:54.289Z,0.60
2018-09-10T10:10:23.682Z,0.90
2018-09-10T10:12:52.300Z,0.80
2018-09-10T10:15:21.926Z,0.70
2018-09-10T10:17:50.347Z,0.70
2018-09-10T10:20:18.812Z,1.42
2018-09-10T10:22:47.300Z,0.72
2018-09-10T10:25:15.828Z,0.93
2018-09-10T10:27:44.400Z,0.98
2018-09-10T10:30:15.195Z,0.68
2018-09-10T10:32:45.647Z,0.70
2018-09-10T10:35:14.650Z,0.60
2018-09-10T10:37:43.528Z,0.80
2018-09-10T10:40:12.245Z,0.85
2018-09-10T10:42:43.035Z,0.95
2018-09-10T10:45:12.471Z,1.35
2018-09-10T10:47:43.003Z,0.95
2018-09-10T10:50:14.769Z,0.93
2018-09-10T10:53:02.137Z,0.68
2018-09-10T10:58:46.102Z,0.88
2018-09-10T11:01:54.927Z,0.70
2018-09-10T11:07:43.729Z,0.50
2018-09-10T11:10:12.216Z,0.60
2018-09-10T11:13:43.577Z,0.60
2018-09-10T11:16:11.995Z,0.70
2018-09-10T11:18:40.755Z,0.60
2018-09-10T11:21:09.261Z,0.70
2018-09-10T11:23:37.828Z,0.62
2018-09-10T11:26:06.405Z,0.50
2018-09-10T11:28:34.953Z,0.47
2018-09-10T11:31:03.351Z,0.50
2018-09-10T11:33:31.589Z,0.60
2018-09-10T11:35:59.887Z,0.50
2018-09-10T11:38:28.140Z,0.50
2018-09-10T11:40:56.384Z,0.50
2018-09-10T11:43:24.807Z,0.40
2018-09-10T11:45:53.143Z,0.70
2018-09-10T11:48:23.370Z,0.78
2018-09-10T11:50:54.230Z,0.70
2018-09-10T11:53:23.259Z,0.50
2018-09-10T11:55:53.849Z,0.70
2018-09-10T11:58:22.366Z,0.60
2018-09-10T12:04:04.531Z,1.00
2018-09-10T12:06:33.069Z,7.35
2018-09-10T12:09:01.532Z,0.55
2018-09-10T12:11:29.946Z,0.60
2018-09-10T12:13:58.328Z,0.80
2018-09-10T12:16:26.644Z,0.65
2018-09-10T12:18:55.109Z,0.40
2018-09-10T12:21:23.508Z,0.82
2018-09-10T12:23:51.896Z,0.93
2018-09-10T12:26:20.360Z,0.50
2018-09-10T12:28:48.881Z,2.90
2018-09-10T12:31:17.498Z,0.80
2018-09-10T12:33:46.031Z,0.80
2018-09-10T12:36:14.384Z,0.60
2018-09-10T12:38:42.779Z,1.07
2018-09-10T12:41:11.267Z,0.70
2018-09-10T12:43:40.580Z,0.57
2018-09-10T12:46:09.148Z,0.50
2018-09-10T12:48:37.416Z,0.60
2018-09-10T12:51:05.865Z,0.98
2018-09-10T12:53:34.163Z,3.30
2018-09-10T12:56:02.886Z,0.75
2018-09-10T12:58:31.160Z,0.60
2018-09-10T13:01:01.456Z,0.70
2018-09-10T13:03:30.063Z,0.98
2018-09-10T13:05:58.719Z,0.75
2018-09-10T13:08:27.122Z,0.95
2018-09-10T13:10:55.777Z,0.80
2018-09-10T13:13:24.274Z,1.00
2018-09-10T13:15:53.504Z,1.15
2018-09-10T13:18:21.848Z,0.93
2018-09-10T13:20:50.365Z,0.90
2018-09-10T13:23:18.679Z,1.30
2018-09-10T13:25:47.137Z,0.72
2018-09-10T13:28:15.851Z,0.70
2018-09-10T13:30:44.167Z,1.17
2018-09-10T13:33:12.483Z,1.15
2018-09-10T13:35:40.644Z,0.90
2018-09-10T13:38:09.981Z,0.82
2018-09-10T13:40:38.188Z,1.20
2018-09-10T13:43:06.563Z,0.95
2018-09-10T13:45:34.992Z,0.80
2018-09-10T13:48:03.354Z,0.85
2018-09-10T13:50:31.532Z,1.02
2018-09-10T13:52:59.900Z,1.20
2018-09-10T13:55:28.307Z,1.52
2018-09-10T13:57:56.827Z,0.90
2018-09-10T14:00:25.232Z,1.00
2018-09-10T14:02:53.446Z,0.88
2018-09-10T14:05:21.672Z,1.10
2018-09-10T14:07:49.839Z,0.80
2018-09-10T14:10:18.113Z,1.10
2018-09-10T14:12:46.329Z,1.55
2018-09-10T14:15:14.690Z,0.98
2018-09-10T14:17:42.825Z,0.78
2018-09-10T14:20:11.139Z,1.30
2018-09-10T14:22:39.261Z,1.00
2018-09-10T14:25:07.498Z,1.50
2018-09-10T14:27:35.736Z,1.50
2018-09-10T14:30:04.219Z,1.62
2018-09-10T14:32:32.547Z,1.30
2018-09-10T14:35:00.861Z,0.88
2018-09-10T14:37:29.186Z,1.40
2018-09-10T14:39:57.583Z,1.20
2018-09-10T14:42:26.959Z,1.37
2018-09-10T14:44:55.527Z,0.85
2018-09-10T14:47:23.861Z,1.50
2018-09-10T14:49:52.288Z,1.32
2018-09-10T14:52:20.693Z,1.77
2018-09-10T14:54:49.100Z,2.12
2018-09-10T14:57:17.470Z,1.22
2018-09-10T14:59:45.802Z,1.17
2018-09-10T15:02:14.266Z,1.05
2018-09-10T15:04:42.637Z,2.65
2018-09-10T15:07:11.994Z,1.25
2018-09-10T15:09:40.337Z,1.40
2018-09-10T15:12:08.861Z,1.32
2018-09-10T15:14:37.318Z,0.88
2018-09-10T15:17:05.680Z,1.07
2018-09-10T15:19:33.700Z,1.10
2018-09-10T15:22:02.500Z,1.20
2018-09-10T15:24:31.609Z,0.90
2018-09-10T15:26:59.465Z,0.98
2018-09-10T15:29:27.337Z,1.30
2018-09-10T15:31:55.179Z,1.67
2018-09-10T15:34:23.038Z,1.05
2018-09-10T15:36:50.864Z,1.40
2018-09-10T15:39:18.725Z,0.62
2018-09-10T15:41:46.525Z,0.90
2018-09-10T15:44:15.342Z,0.70
2018-09-10T15:46:43.161Z,0.88
2018-09-10T15:49:11.328Z,0.70
2018-09-10T15:51:39.212Z,0.80
2018-09-10T15:54:07.139Z,0.60
2018-09-10T15:56:35.177Z,1.40
2018-09-10T15:59:03.092Z,0.65
2018-09-10T16:01:30.962Z,0.70
2018-09-10T16:03:58.845Z,0.65
2018-09-10T16:06:26.677Z,0.60
2018-09-10T16:08:54.491Z,0.50
2018-09-10T16:11:22.355Z,0.57
2018-09-10T16:13:50.203Z,0.50
2018-09-10T16:16:18.114Z,0.47
2018-09-10T16:18:46.009Z,0.75
2018-09-10T16:21:13.832Z,0.50
2018-09-10T16:23:41.670Z,0.85
2018-09-10T16:26:09.543Z,0.50
2018-09-10T16:28:37.398Z,0.60
2018-09-10T16:31:05.252Z,0.70
2018-09-10T16:33:33.192Z,0.70
2018-09-10T16:36:01.069Z,0.62
2018-09-10T16:38:28.937Z,0.57
2018-09-10T16:40:56.790Z,0.40
2018-09-10T16:43:24.605Z,0.47
2018-09-10T16:45:52.450Z,0.40
2018-09-10T16:48:20.248Z,0.80
2018-09-10T16:50:49.081Z,0.50
2018-09-10T16:53:17.876Z,0.93
2018-09-10T16:55:45.679Z,0.60
2018-09-10T16:58:13.504Z,0.65
2018-09-10T17:06:07.285Z,0.60
2018-09-10T17:08:35.082Z,0.50
2018-09-10T17:11:02.933Z,0.80
2018-09-10T17:13:30.764Z,0.75
2018-09-10T17:15:58.576Z,0.78
2018-09-10T17:18:28.439Z,0.80
2018-09-10T17:20:56.350Z,9.40
2018-09-10T17:23:25.165Z,1.05
2018-09-10T17:25:54.190Z,1.90
2018-09-10T17:31:29.661Z,0.50
2018-09-10T17:37:05.628Z,0.45
2018-09-10T17:39:34.579Z,0.53
2018-09-10T17:42:13.138Z,0.60
2018-09-10T17:44:41.015Z,0.70
2018-09-10T17:47:09.983Z,6.95
2018-09-10T17:49:37.750Z,1.30
2018-09-10T17:52:05.805Z,1.17
2018-09-10T17:54:33.892Z,0.57
2018-09-10T17:57:01.849Z,0.85
2018-09-10T17:59:29.727Z,0.90
2018-09-10T18:01:58.678Z,0.93
2018-09-10T18:04:26.513Z,0.68
2018-09-10T18:06:54.460Z,0.50
2018-09-10T18:09:22.316Z,0.75
2018-09-10T18:11:50.185Z,0.85
2018-09-10T18:14:18.014Z,0.88
2018-09-10T18:16:45.851Z,0.55
2018-09-10T18:19:13.796Z,0.70
2018-09-10T18:21:41.683Z,0.82
2018-09-10T18:24:10.627Z,0.68
2018-09-10T18:26:38.498Z,0.60
2018-09-10T18:29:06.354Z,1.00
2018-09-10T18:31:34.244Z,1.10
2018-09-10T18:34:02.170Z,0.80
2018-09-10T18:36:30.025Z,0.78
2018-09-10T18:38:57.933Z,1.07
2018-09-10T18:41:25.813Z,0.82
2018-09-10T18:43:53.667Z,0.93
2018-09-10T18:46:21.550Z,1.15
2018-09-10T18:48:51.498Z,0.95
2018-09-10T18:51:19.409Z,1.30
2018-09-10T18:53:48.109Z,0.88
2018-09-10T18:56:40.388Z,0.70
2018-09-10T18:59:52.514Z,0.72
2018-09-10T19:02:20.453Z,0.82
2018-09-10T19:04:49.336Z,0.88
2018-09-10T19:07:17.187Z,0.80
2018-09-10T19:09:46.104Z,1.15
2018-09-10T19:12:13.922Z,0.82
2018-09-10T19:14:41.833Z,1.70
2018-09-10T19:17:09.736Z,1.02
2018-09-10T19:19:37.579Z,1.87
2018-09-10T19:22:05.416Z,2.87
2018-09-10T19:24:33.290Z,2.70
2018-09-10T19:27:01.162Z,2.95
2018-09-10T19:29:30.047Z,1.60
2018-09-10T19:31:57.906Z,1.30
2018-09-10T19:34:25.747Z,1.17
2018-09-10T19:36:53.640Z,1.00
2018-09-10T19:39:21.574Z,1.55
2018-09-10T19:41:49.558Z,1.57
2018-09-10T19:44:17.424Z,1.52
2018-09-10T19:46:45.293Z,1.37
2018-09-10T19:49:13.123Z,1.50
2018-09-10T19:51:41.994Z,1.87
2018-09-10T19:54:09.847Z,1.82
2018-09-10T19:56:37.672Z,1.70
2018-09-10T19:59:05.476Z,1.47
2018-09-10T20:01:33.308Z,1.40
2018-09-10T20:04:01.270Z,1.90
2018-09-10T20:06:29.097Z,1.82
2018-09-10T20:08:56.931Z,2.10
2018-09-10T20:11:24.798Z,1.77
2018-09-10T20:13:52.594Z,1.40
2018-09-10T20:16:20.441Z,1.65
2018-09-10T20:18:48.340Z,1.82
2018-09-10T20:21:16.196Z,1.98
2018-09-10T20:23:44.104Z,1.35
2018-09-10T20:26:25.448Z,2.30
2018-09-10T20:28:54.030Z,1.72
2018-09-10T20:31:24.836Z,1.82
2018-09-10T20:33:59.735Z,1.45
2018-09-10T20:36:28.010Z,1.87
2018-09-10T20:38:56.372Z,1.60
2018-09-10T20:41:24.712Z,1.60
2018-09-10T20:43:54.083Z,1.55
2018-09-10T20:46:22.427Z,1.62
2018-09-10T20:48:50.820Z,1.60
2018-09-10T20:51:19.190Z,1.30
2018-09-10T20:53:47.893Z,1.92
2018-09-10T20:56:16.269Z,1.72
2018-09-10T20:58:44.585Z,1.77
2018-09-10T21:01:12.973Z,2.10
2018-09-10T21:03:41.358Z,1.70
2018-09-10T21:06:09.741Z,1.70
2018-09-10T21:08:38.135Z,2.83
2018-09-10T21:11:06.525Z,3.17
2018-09-10T21:13:34.831Z,3.02
2018-09-10T21:16:03.166Z,3.27
2018-09-10T21:18:31.552Z,2.40
2018-09-10T21:20:59.920Z,3.05
2018-09-10T21:23:28.309Z,2.42
2018-09-10T21:25:56.628Z,3.22
2018-09-10T21:28:24.970Z,3.02
2018-09-10T21:30:53.351Z,2.92
2018-09-10T21:33:21.681Z,2.50
2018-09-10T21:35:50.009Z,1.85
2018-09-10T21:38:18.289Z,2.85
2018-09-10T21:40:46.654Z,2.90
2018-09-10T21:43:14.975Z,2.70
2018-09-10T21:45:43.325Z,2.83
2018-09-10T21:48:11.684Z,2.83
2018-09-10T21:50:39.980Z,2.60
2018-09-10T21:53:08.260Z,2.10
2018-09-10T21:55:37.573Z,2.30
2018-09-10T21:58:05.873Z,2.08
2018-09-10T22:00:34.204Z,2.22
2018-09-10T22:03:02.500Z,2.65
2018-09-10T22:05:30.781Z,2.72
2018-09-10T22:07:59.089Z,2.77
2018-09-10T22:10:27.429Z,3.10
2018-09-10T22:12:55.766Z,3.42
2018-09-10T22:15:24.062Z,3.22
2018-09-10T22:17:52.377Z,2.90
2018-09-10T22:20:20.729Z,4.17
2018-09-10T22:22:49.000Z,3.40
2018-09-10T22:25:17.310Z,3.70
2018-09-10T22:27:45.642Z,3.27
2018-09-10T22:30:13.980Z,2.98
2018-09-10T22:32:42.273Z,3.15
2018-09-10T22:35:10.622Z,3.20
2018-09-10T22:37:38.950Z,3.35
2018-09-10T22:40:07.323Z,2.98
2018-09-10T22:42:35.673Z,2.83
2018-09-10T22:45:04.623Z,3.05
2018-09-10T22:47:32.920Z,2.90
2018-09-10T22:50:01.244Z,3.55
2018-09-10T22:52:29.541Z,3.40
2018-09-10T22:54:57.879Z,2.72
2018-09-10T22:57:26.159Z,3.00
2018-09-10T22:59:54.462Z,3.10
2018-09-10T23:02:22.739Z,3.27
2018-09-10T23:04:51.023Z,3.35
2018-09-10T23:07:19.391Z,3.62
2018-09-10T23:09:47.728Z,3.35
2018-09-10T23:12:16.296Z,2.98
2018-09-10T23:14:44.636Z,3.37
2018-09-10T23:17:12.929Z,2.72
2018-09-10T23:19:41.265Z,3.37
2018-09-10T23:22:09.562Z,3.37
2018-09-10T23:24:37.881Z,3.05
2018-09-10T23:27:05.936Z,3.00
2018-09-10T23:29:34.314Z,3.10
2018-09-10T23:32:02.666Z,3.25
2018-09-10T23:34:30.980Z,3.00
2018-09-10T23:36:59.355Z,3.12
2018-09-10T23:39:27.664Z,2.87
2018-09-10T23:41:55.952Z,3.58
2018-09-10T23:44:24.250Z,3.42
2018-09-10T23:46:52.603Z,3.22
2018-09-10T23:49:20.977Z,3.52
2018-09-10T23:51:49.635Z,3.33
2018-09-10T23:54:18.106Z,2.87
2018-09-10T23:56:46.424Z,3.40
2018-09-10T23:59:14.805Z,3.62
